Gentle Leader — C6WY9 — position and weather

sailwx.info

Track history (hours):
 
Tides and Currents Weather Stations Pressure Air Temp Water Temp Dewpoint Dewpoint Depression Visibility Wind Speed Wind Dir Waves Ship Positions

Gentle Leader

Last reported at 2016-Jun-26 05:33 UTC. Time now 2016-Jun-26 06:33 UTC.
Position N 41°52' E 003°57'.

Length 200 m; draft 8.6 m.

Type: Cargo ship. MMSI: 311003300.

Date/timePositionNaut miles runAvg speedWind from/ knotsBaromVisibWave heightAir tempDewpointWater temp
2016-Jun-26 05:33N 41°52' E 003°57'1313.2
2016-Jun-26 04:33N 41°47' E 003°41'1413.4
2016-Jun-26 03:32N 41°41' E 003°24'2014.2
2016-Jun-26 02:10N 41°33' E 003°01'1014.3
2016-Jun-26 01:26N 41°28' E 002°48'1314.6
2016-Jun-26 00:33N 41°23' E 002°33'1514.9
2016-Jun-25 23:33N 41°16' E 002°15'6 5.7
2016-Jun-25 22:33N 41°20' E 002°09'0 0.0
2016-Jun-25 21:30N 41°20' E 002°09'0 0.0
2016-Jun-25 20:30N 41°20' E 002°09'0 0.0
2016-Jun-25 18:24N 41°20' E 002°09'0 0.0
2016-Jun-25 16:14N 41°20' E 002°09'2 2.6
2016-Jun-25 15:33N 41°19' E 002°10'9 8.6
2016-Jun-25 14:33N 41°10' E 002°08'10 9.9
2016-Jun-25 13:33N 41°01' E 002°02'1010.2
2016-Jun-25 12:33N 40°52' E 001°55'1110.6
2016-Jun-25 11:33N 40°43' E 001°49'1212.1
2016-Jun-25 10:33N 40°32' E 001°42'1312.8
2016-Jun-25 09:33N 40°21' E 001°35'1313.0
2016-Jun-25 08:33N 40°09' E 001°27'2 2.5
2016-Jun-25 07:33N 40°07' E 001°25'9 9.4
2016-Jun-25 06:33N 39°59' E 001°19'1110.8
2016-Jun-25 05:33N 39°49' E 001°13'2214.8
2016-Jun-25 04:05N 39°30' E 000°60'1119.7
2016-Jun-25 03:33N 39°20' E 000°54'2319.7
2016-Jun-25 02:24N 39°00' E 000°40'1619.3
2016-Jun-25 01:33N 38°46' E 000°31'2019.5
2016-Jun-25 00:33N 38°29' E 000°18'2019.9
2016-Jun-24 23:33N 38°13' E 000°03'2019.6
2016-Jun-24 22:33N 37°56' W 000°10'2019.9
2016-Jun-24 21:33N 37°39' W 000°23'2019.9
2016-Jun-24 20:33N 37°25' W 000°41'2019.9
2016-Jun-24 19:33N 37°12' W 000°60'1919.3
2016-Jun-24 18:33N 36°60' W 001°18'2019.7
2016-Jun-24 17:33N 36°46' W 001°36'17919.7
2016-Jun-24 08:26N 36°00' W 005°12'13219.2
2016-Jun-24 01:33N 36°13' W 007°54'2519.4
2016-Jun-24 00:17N 36°20' W 008°24'1419.3
2016-Jun-23 23:33N 36°25' W 008°40'2019.5
2016-Jun-23 22:31N 36°32' W 009°04'2519.0
2016-Jun-23 21:11N 36°46' W 009°30'1319.7
2016-Jun-23 20:33N 36°58' W 009°35'2319.9
2016-Jun-23 19:23N 37°21' W 009°42'1719.8
2016-Jun-23 18:33N 37°37' W 009°47'2020.0
2016-Jun-23 17:33N 37°56' W 009°54'2019.8
2016-Jun-23 16:33N 38°15' W 009°59'2219.8
2016-Jun-23 15:27N 38°37' W 010°04'1919.6
2016-Jun-23 14:29N 38°56' W 010°06'69318.6
2016-Jun-22 01:14N 49°36' W 003°57'1420.7
2016-Jun-22 00:33N 49°43' W 003°39'2020.3
2016-Jun-21 23:33N 49°53' W 003°11'1918.8
2016-Jun-21 22:34N 50°00' W 002°45'5516.6
2016-Jun-21 19:14N 50°23' W 001°26'1217.0
2016-Jun-21 18:33N 50°29' W 001°10'1514.8
2016-Jun-21 17:33N 50°41' W 000°58'1313.1
2016-Jun-21 16:33N 50°46' W 001°17'8 8.3
2016-Jun-21 15:32N 50°54' W 001°24'0 0.0
2016-Jun-21 14:29N 50°53' W 001°24'0 0.0
2016-Jun-21 13:29N 50°53' W 001°24'0 0.0
2016-Jun-21 12:32N 50°53' W 001°24'0 0.0
2016-Jun-21 11:23N 50°53' W 001°24'0 0.0
2016-Jun-21 10:32N 50°53' W 001°24'0 0.0
2016-Jun-21 09:23N 50°53' W 001°24'0 0.0
2016-Jun-21 08:26N 50°53' W 001°24'0 0.0
2016-Jun-21 07:17N 50°53' W 001°24'0 0.0
2016-Jun-21 04:29N 50°53' W 001°24'0 0.0
2016-Jun-21 03:29N 50°53' W 001°24'0 0.0
2016-Jun-21 02:29N 50°53' W 001°24'0 0.0
2016-Jun-21 01:32N 50°53' W 001°24'0 0.0
2016-Jun-21 00:32N 50°53' W 001°24'0 0.0
2016-Jun-20 23:32N 50°53' W 001°24'0 0.0
2016-Jun-20 22:32N 50°53' W 001°24'0 0.0
2016-Jun-20 21:32N 50°53' W 001°24'0 0.0
2016-Jun-20 20:32N 50°53' W 001°24'0 0.0
2016-Jun-20 19:32N 50°53' W 001°24'0 0.0
2016-Jun-20 18:32N 50°53' W 001°24'0 0.0
2016-Jun-20 17:32N 50°53' W 001°24'0 0.0
2016-Jun-20 16:32N 50°53' W 001°24'0 0.0
2016-Jun-20 15:32N 50°53' W 001°24'0 0.0
2016-Jun-20 14:29N 50°53' W 001°24'0 0.0
2016-Jun-20 13:32N 50°53' W 001°24'0 0.0
2016-Jun-20 12:29N 50°53' W 001°24'0 0.0
2016-Jun-20 11:32N 50°53' W 001°24'0 0.0
2016-Jun-20 10:32N 50°53' W 001°24'0 0.0
2016-Jun-20 09:32N 50°53' W 001°24'0 0.0
2016-Jun-20 08:32N 50°53' W 001°24'0 0.0
2016-Jun-20 07:29N 50°53' W 001°24'0 0.0
2016-Jun-20 06:23N 50°53' W 001°24'0 0.0
2016-Jun-20 05:32N 50°53' W 001°24'0 0.0
2016-Jun-20 04:32N 50°53' W 001°24'0 0.0
2016-Jun-20 03:32N 50°53' W 001°24'0 0.0
2016-Jun-20 02:29N 50°53' W 001°24'0 0.0
2016-Jun-20 01:32N 50°53' W 001°24'0 0.0
2016-Jun-20 00:32N 50°53' W 001°24'0 0.0
2016-Jun-19 23:32N 50°53' W 001°24'0 0.0
2016-Jun-19 22:32N 50°53' W 001°24'0 0.0
2016-Jun-19 21:32N 50°53' W 001°24'0 0.4
2016-Jun-19 20:28N 50°53' W 001°24'0 0.0
2016-Jun-19 19:31N 50°53' W 001°24'0 0.0
2016-Jun-19 18:22N 50°53' W 001°24'0 0.0
2016-Jun-19 17:25N 50°53' W 001°24'0 0.0
2016-Jun-19 16:31N 50°53' W 001°24'0 0.0
2016-Jun-19 15:22N 50°53' W 001°24'0 0.0
2016-Jun-19 14:22N 50°53' W 001°24'0 0.0
2016-Jun-19 13:22N 50°53' W 001°24'0 0.0
2016-Jun-19 12:25N 50°53' W 001°24'0 0.0
2016-Jun-19 11:28N 50°53' W 001°24'0 0.0
2016-Jun-19 10:31N 50°53' W 001°24'0 0.0
2016-Jun-19 09:28N 50°53' W 001°24'0 0.0
2016-Jun-19 08:28N 50°53' W 001°24'0 0.0
2016-Jun-19 07:25N 50°53' W 001°24'0 0.0
2016-Jun-19 06:28N 50°53' W 001°24'0 0.0
2016-Jun-19 05:31N 50°53' W 001°24'0 0.0
2016-Jun-19 04:25N 50°53' W 001°24'0 0.0
2016-Jun-19 03:28N 50°53' W 001°24'0 0.0
2016-Jun-19 02:31N 50°53' W 001°24'0 0.0
2016-Jun-19 01:19N 50°53' W 001°24'0 0.0
2016-Jun-19 00:31N 50°53' W 001°24'0 0.0
2016-Jun-18 23:31N 50°53' W 001°24'1 0.8
2016-Jun-18 22:33N 50°52' W 001°23'7 6.7
2016-Jun-18 21:33N 50°46' W 001°18'1110.9
2016-Jun-18 20:33N 50°44' W 001°02'1110.9
2016-Jun-18 19:33N 50°36' W 000°49'1211.2
2016-Jun-18 18:31N 50°32' W 000°32'1 0.7
2016-Jun-18 17:34N 50°31' W 000°33'1 1.0
2016-Jun-18 16:33N 50°32' W 000°35'1 0.8
2016-Jun-18 15:33N 50°33' W 000°34'1 1.4
2016-Jun-18 14:32N 50°32' W 000°32'1 0.7
2016-Jun-18 13:33N 50°32' W 000°31'1 1.3
2016-Jun-18 12:33N 50°32' W 000°29'2 1.5
2016-Jun-18 11:33N 50°32' W 000°27'1 1.1
2016-Jun-18 10:33N 50°32' W 000°26'1 0.5
2016-Jun-18 09:33N 50°33' W 000°25'1 0.6
2016-Jun-18 08:33N 50°33' W 000°26'2 1.6
2016-Jun-18 07:33N 50°33' W 000°28'2 1.7
2016-Jun-18 06:33N 50°33' W 000°31'1 1.2
2016-Jun-18 05:33N 50°33' W 000°33'0 0.5
2016-Jun-18 04:33N 50°33' W 000°34'0 0.4
2016-Jun-18 03:30N 50°33' W 000°33'4 3.9
2016-Jun-18 02:33N 50°33' W 000°27'9 9.0
2016-Jun-18 01:33N 50°32' W 000°14'9 8.9
2016-Jun-18 00:33N 50°32' E 000°00'9 8.8
2016-Jun-17 23:34N 50°35' E 000°14'8 8.3
2016-Jun-17 22:33N 50°37' E 000°26'24 7.4
2016-Jun-17 19:20N 50°49' E 000°58'6 8.1
2016-Jun-17 18:34N 50°53' E 001°06'9 9.0
2016-Jun-17 17:33N 50°59' E 001°17'1414.4
2016-Jun-17 16:34N 51°07' E 001°36'1615.8
2016-Jun-17 15:34N 51°19' E 001°52'1615.5
2016-Jun-17 14:34N 51°32' E 002°06'1514.7
2016-Jun-17 13:33N 51°44' E 002°20'4714.1
2016-Jun-17 10:15N 52°20' E 003°08'1115.5
2016-Jun-17 09:33N 52°29' E 003°19'1616.1
2016-Jun-17 08:33N 52°41' E 003°35'1916.4
2016-Jun-17 07:25N 52°56' E 003°55'1616.2
2016-Jun-17 06:25N 53°07' E 004°15'1315.1
2016-Jun-17 05:32N 53°17' E 004°28'1414.3
2016-Jun-17 04:33N 53°30' E 004°39'1414.2
2016-Jun-17 03:33N 53°35' E 005°01'1414.4
2016-Jun-17 02:34N 53°39' E 005°24'1515.3
2016-Jun-17 01:34N 53°44' E 005°48'1616.3
2016-Jun-17 00:34N 53°49' E 006°15'1716.6
2016-Jun-16 23:34N 53°54' E 006°42'1616.3
2016-Jun-16 22:33N 53°57' E 007°09'1615.6
2016-Jun-16 21:33N 54°01' E 007°35'1515.1
2016-Jun-16 20:34N 54°01' E 008°00'1313.1
2016-Jun-16 19:33N 53°59' E 008°22'1212.3
2016-Jun-16 18:33N 53°54' E 008°41'1312.5
2016-Jun-16 17:33N 53°52' E 009°02'1312.5
2016-Jun-16 16:34N 53°48' E 009°23'1515.3
2016-Jun-16 15:34N 53°35' E 009°37'1211.9
2016-Jun-16 14:33N 53°33' E 009°56'2 2.3
2016-Jun-16 13:33N 53°32' E 009°60'0 0.0
2016-Jun-16 12:33N 53°32' E 009°60'0 0.0
2016-Jun-16 11:33N 53°32' E 009°60'0 0.0
2016-Jun-16 10:33N 53°32' E 009°60'0 0.0
2016-Jun-16 09:33N 53°32' E 009°60'0 0.0
2016-Jun-16 08:33N 53°32' E 009°60'0 0.0
2016-Jun-16 07:33N 53°32' E 009°60'0 0.0
2016-Jun-16 06:33N 53°32' E 009°60'0 0.0
2016-Jun-16 05:33N 53°32' E 009°60'  
Track history (hours):
 
Tides and Currents Weather Stations Pressure Air Temp Water Temp Dewpoint Dewpoint Depression Visibility Wind Speed Wind Dir Waves Ship Positions

Gentle Leader

Last reported at 2016-Jun-26 05:33 UTC. Time now 2016-Jun-26 06:33 UTC.
Position N 41°52' E 003°57'.

Length 200 m; draft 8.6 m.

Type: Cargo ship. MMSI: 311003300.

Date/timePositionNaut miles runAvg speedWind from/ knotsBaromVisibWave heightAir tempDewpointWater temp
2016-Jun-26 05:33N 41°52' E 003°57'1313.2
2016-Jun-26 04:33N 41°47' E 003°41'1413.4
2016-Jun-26 03:32N 41°41' E 003°24'2014.2
2016-Jun-26 02:10N 41°33' E 003°01'1014.3
2016-Jun-26 01:26N 41°28' E 002°48'1314.6
2016-Jun-26 00:33N 41°23' E 002°33'1514.9
2016-Jun-25 23:33N 41°16' E 002°15'6 5.7
2016-Jun-25 22:33N 41°20' E 002°09'0 0.0
2016-Jun-25 21:30N 41°20' E 002°09'0 0.0
2016-Jun-25 20:30N 41°20' E 002°09'0 0.0
2016-Jun-25 18:24N 41°20' E 002°09'0 0.0
2016-Jun-25 16:14N 41°20' E 002°09'2 2.6
2016-Jun-25 15:33N 41°19' E 002°10'9 8.6
2016-Jun-25 14:33N 41°10' E 002°08'10 9.9
2016-Jun-25 13:33N 41°01' E 002°02'1010.2
2016-Jun-25 12:33N 40°52' E 001°55'1110.6
2016-Jun-25 11:33N 40°43' E 001°49'1212.1
2016-Jun-25 10:33N 40°32' E 001°42'1312.8
2016-Jun-25 09:33N 40°21' E 001°35'1313.0
2016-Jun-25 08:33N 40°09' E 001°27'2 2.5
2016-Jun-25 07:33N 40°07' E 001°25'9 9.4
2016-Jun-25 06:33N 39°59' E 001°19'1110.8
2016-Jun-25 05:33N 39°49' E 001°13'2214.8
2016-Jun-25 04:05N 39°30' E 000°60'1119.7
2016-Jun-25 03:33N 39°20' E 000°54'2319.7
2016-Jun-25 02:24N 39°00' E 000°40'1619.3
2016-Jun-25 01:33N 38°46' E 000°31'2019.5
2016-Jun-25 00:33N 38°29' E 000°18'2019.9
2016-Jun-24 23:33N 38°13' E 000°03'2019.6
2016-Jun-24 22:33N 37°56' W 000°10'2019.9
2016-Jun-24 21:33N 37°39' W 000°23'2019.9
2016-Jun-24 20:33N 37°25' W 000°41'2019.9
2016-Jun-24 19:33N 37°12' W 000°60'1919.3
2016-Jun-24 18:33N 36°60' W 001°18'2019.7
2016-Jun-24 17:33N 36°46' W 001°36'17919.7
2016-Jun-24 08:26N 36°00' W 005°12'13219.2
2016-Jun-24 01:33N 36°13' W 007°54'2519.4
2016-Jun-24 00:17N 36°20' W 008°24'1419.3
2016-Jun-23 23:33N 36°25' W 008°40'2019.5
2016-Jun-23 22:31N 36°32' W 009°04'2519.0
2016-Jun-23 21:11N 36°46' W 009°30'1319.7
2016-Jun-23 20:33N 36°58' W 009°35'2319.9
2016-Jun-23 19:23N 37°21' W 009°42'1719.8
2016-Jun-23 18:33N 37°37' W 009°47'2020.0
2016-Jun-23 17:33N 37°56' W 009°54'2019.8
2016-Jun-23 16:33N 38°15' W 009°59'2219.8
2016-Jun-23 15:27N 38°37' W 010°04'1919.6
2016-Jun-23 14:29N 38°56' W 010°06'69318.6
2016-Jun-22 01:14N 49°36' W 003°57'1420.7
2016-Jun-22 00:33N 49°43' W 003°39'2020.3
2016-Jun-21 23:33N 49°53' W 003°11'1918.8
2016-Jun-21 22:34N 50°00' W 002°45'5516.6
2016-Jun-21 19:14N 50°23' W 001°26'1217.0
2016-Jun-21 18:33N 50°29' W 001°10'1514.8
2016-Jun-21 17:33N 50°41' W 000°58'1313.1
2016-Jun-21 16:33N 50°46' W 001°17'8 8.3
2016-Jun-21 15:32N 50°54' W 001°24'0 0.0
2016-Jun-21 14:29N 50°53' W 001°24'0 0.0
2016-Jun-21 13:29N 50°53' W 001°24'0 0.0
2016-Jun-21 12:32N 50°53' W 001°24'0 0.0
2016-Jun-21 11:23N 50°53' W 001°24'0 0.0
2016-Jun-21 10:32N 50°53' W 001°24'0 0.0
2016-Jun-21 09:23N 50°53' W 001°24'0 0.0
2016-Jun-21 08:26N 50°53' W 001°24'0 0.0
2016-Jun-21 07:17N 50°53' W 001°24'0 0.0
2016-Jun-21 04:29N 50°53' W 001°24'0 0.0
2016-Jun-21 03:29N 50°53' W 001°24'0 0.0
2016-Jun-21 02:29N 50°53' W 001°24'0 0.0
2016-Jun-21 01:32N 50°53' W 001°24'0 0.0
2016-Jun-21 00:32N 50°53' W 001°24'0 0.0
2016-Jun-20 23:32N 50°53' W 001°24'0 0.0
2016-Jun-20 22:32N 50°53' W 001°24'0 0.0
2016-Jun-20 21:32N 50°53' W 001°24'0 0.0
2016-Jun-20 20:32N 50°53' W 001°24'0 0.0
2016-Jun-20 19:32N 50°53' W 001°24'0 0.0
2016-Jun-20 18:32N 50°53' W 001°24'0 0.0
2016-Jun-20 17:32N 50°53' W 001°24'0 0.0
2016-Jun-20 16:32N 50°53' W 001°24'0 0.0
2016-Jun-20 15:32N 50°53' W 001°24'0 0.0
2016-Jun-20 14:29N 50°53' W 001°24'0 0.0
2016-Jun-20 13:32N 50°53' W 001°24'0 0.0
2016-Jun-20 12:29N 50°53' W 001°24'0 0.0
2016-Jun-20 11:32N 50°53' W 001°24'0 0.0
2016-Jun-20 10:32N 50°53' W 001°24'0 0.0
2016-Jun-20 09:32N 50°53' W 001°24'0 0.0
2016-Jun-20 08:32N 50°53' W 001°24'0 0.0
2016-Jun-20 07:29N 50°53' W 001°24'0 0.0
2016-Jun-20 06:23N 50°53' W 001°24'0 0.0
2016-Jun-20 05:32N 50°53' W 001°24'0 0.0
2016-Jun-20 04:32N 50°53' W 001°24'0 0.0
2016-Jun-20 03:32N 50°53' W 001°24'0 0.0
2016-Jun-20 02:29N 50°53' W 001°24'0 0.0
2016-Jun-20 01:32N 50°53' W 001°24'0 0.0
2016-Jun-20 00:32N 50°53' W 001°24'0 0.0
2016-Jun-19 23:32N 50°53' W 001°24'0 0.0
2016-Jun-19 22:32N 50°53' W 001°24'0 0.0
2016-Jun-19 21:32N 50°53' W 001°24'0 0.4
2016-Jun-19 20:28N 50°53' W 001°24'0 0.0
2016-Jun-19 19:31N 50°53' W 001°24'0 0.0
2016-Jun-19 18:22N 50°53' W 001°24'0 0.0
2016-Jun-19 17:25N 50°53' W 001°24'0 0.0
2016-Jun-19 16:31N 50°53' W 001°24'0 0.0
2016-Jun-19 15:22N 50°53' W 001°24'0 0.0
2016-Jun-19 14:22N 50°53' W 001°24'0 0.0
2016-Jun-19 13:22N 50°53' W 001°24'0 0.0
2016-Jun-19 12:25N 50°53' W 001°24'0 0.0
2016-Jun-19 11:28N 50°53' W 001°24'0 0.0
2016-Jun-19 10:31N 50°53' W 001°24'0 0.0
2016-Jun-19 09:28N 50°53' W 001°24'0 0.0
2016-Jun-19 08:28N 50°53' W 001°24'0 0.0
2016-Jun-19 07:25N 50°53' W 001°24'0 0.0
2016-Jun-19 06:28N 50°53' W 001°24'0 0.0
2016-Jun-19 05:31N 50°53' W 001°24'0 0.0
2016-Jun-19 04:25N 50°53' W 001°24'0 0.0
2016-Jun-19 03:28N 50°53' W 001°24'0 0.0
2016-Jun-19 02:31N 50°53' W 001°24'0 0.0
2016-Jun-19 01:19N 50°53' W 001°24'0 0.0
2016-Jun-19 00:31N 50°53' W 001°24'0 0.0
2016-Jun-18 23:31N 50°53' W 001°24'1 0.8
2016-Jun-18 22:33N 50°52' W 001°23'7 6.7
2016-Jun-18 21:33N 50°46' W 001°18'1110.9
2016-Jun-18 20:33N 50°44' W 001°02'1110.9
2016-Jun-18 19:33N 50°36' W 000°49'1211.2
2016-Jun-18 18:31N 50°32' W 000°32'1 0.7
2016-Jun-18 17:34N 50°31' W 000°33'1 1.0
2016-Jun-18 16:33N 50°32' W 000°35'1 0.8
2016-Jun-18 15:33N 50°33' W 000°34'1 1.4
2016-Jun-18 14:32N 50°32' W 000°32'1 0.7
2016-Jun-18 13:33N 50°32' W 000°31'1 1.3
2016-Jun-18 12:33N 50°32' W 000°29'2 1.5
2016-Jun-18 11:33N 50°32' W 000°27'1 1.1
2016-Jun-18 10:33N 50°32' W 000°26'1 0.5
2016-Jun-18 09:33N 50°33' W 000°25'1 0.6
2016-Jun-18 08:33N 50°33' W 000°26'2 1.6
2016-Jun-18 07:33N 50°33' W 000°28'2 1.7
2016-Jun-18 06:33N 50°33' W 000°31'1 1.2
2016-Jun-18 05:33N 50°33' W 000°33'0 0.5
2016-Jun-18 04:33N 50°33' W 000°34'0 0.4
2016-Jun-18 03:30N 50°33' W 000°33'4 3.9
2016-Jun-18 02:33N 50°33' W 000°27'9 9.0
2016-Jun-18 01:33N 50°32' W 000°14'9 8.9
2016-Jun-18 00:33N 50°32' E 000°00'9 8.8
2016-Jun-17 23:34N 50°35' E 000°14'8 8.3
2016-Jun-17 22:33N 50°37' E 000°26'24 7.4
2016-Jun-17 19:20N 50°49' E 000°58'6 8.1
2016-Jun-17 18:34N 50°53' E 001°06'9 9.0
2016-Jun-17 17:33N 50°59' E 001°17'1414.4
2016-Jun-17 16:34N 51°07' E 001°36'1615.8
2016-Jun-17 15:34N 51°19' E 001°52'1615.5
2016-Jun-17 14:34N 51°32' E 002°06'1514.7
2016-Jun-17 13:33N 51°44' E 002°20'4714.1
2016-Jun-17 10:15N 52°20' E 003°08'1115.5
2016-Jun-17 09:33N 52°29' E 003°19'1616.1
2016-Jun-17 08:33N 52°41' E 003°35'1916.4
2016-Jun-17 07:25N 52°56' E 003°55'1616.2
2016-Jun-17 06:25N 53°07' E 004°15'1315.1
2016-Jun-17 05:32N 53°17' E 004°28'1414.3
2016-Jun-17 04:33N 53°30' E 004°39'1414.2
2016-Jun-17 03:33N 53°35' E 005°01'1414.4
2016-Jun-17 02:34N 53°39' E 005°24'1515.3
2016-Jun-17 01:34N 53°44' E 005°48'1616.3
2016-Jun-17 00:34N 53°49' E 006°15'1716.6
2016-Jun-16 23:34N 53°54' E 006°42'1616.3
2016-Jun-16 22:33N 53°57' E 007°09'1615.6
2016-Jun-16 21:33N 54°01' E 007°35'1515.1
2016-Jun-16 20:34N 54°01' E 008°00'1313.1
2016-Jun-16 19:33N 53°59' E 008°22'1212.3
2016-Jun-16 18:33N 53°54' E 008°41'1312.5
2016-Jun-16 17:33N 53°52' E 009°02'1312.5
2016-Jun-16 16:34N 53°48' E 009°23'1515.3
2016-Jun-16 15:34N 53°35' E 009°37'1211.9
2016-Jun-16 14:33N 53°33' E 009°56'2 2.3
2016-Jun-16 13:33N 53°32' E 009°60'0 0.0
2016-Jun-16 12:33N 53°32' E 009°60'0 0.0
2016-Jun-16 11:33N 53°32' E 009°60'0 0.0
2016-Jun-16 10:33N 53°32' E 009°60'0 0.0
2016-Jun-16 09:33N 53°32' E 009°60'0 0.0
2016-Jun-16 08:33N 53°32' E 009°60'0 0.0
2016-Jun-16 07:33N 53°32' E 009°60'0 0.0
2016-Jun-16 06:33N 53°32' E 009°60'0 0.0
2016-Jun-16 05:33N 53°32' E 009°60'  

Dump ship's entire track history